Time;durP1;ratioP1;P1;durP2;ratioP2;P2;SDS_P1;SDS_P2;PMS_P1;PMS_P2;Temp;Humidity;BMP_temperature;BMP_pressure;BME280_temperature;BME280_humidity;BME280_pressure;Samples;Min_cycle;Max_cycle;Signal;HPM_P1;HPM_P2
2021/06/19 00:01:26;;;;;;;4.40;2.88;;;24.00;99.00;;;;;;4991592;28;20038;-72
2021/06/19 00:03:52;;;;;;;4.43;2.80;;;24.00;98.80;;;;;;4992200;28;20494;-78
2021/06/19 00:06:17;;;;;;;7.30;2.70;;;24.00;98.60;;;;;;4991783;28;20026;-71
2021/06/19 00:08:43;;;;;;;3.15;2.20;;;23.90;98.40;;;;;;4990974;28;20081;-72
2021/06/19 00:11:09;;;;;;;2.80;1.98;;;23.90;98.20;;;;;;4991480;28;20072;-71
2021/06/19 00:13:34;;;;;;;3.58;2.67;;;23.90;98.00;;;;;;4991680;28;20483;-73
2021/06/19 00:16:00;;;;;;;3.88;2.40;;;23.90;97.80;;;;;;4991887;28;20030;-72
2021/06/19 00:18:26;;;;;;;4.78;2.05;;;23.90;97.60;;;;;;4991594;28;20513;-71
2021/06/19 00:20:52;;;;;;;4.03;2.50;;;23.80;97.50;;;;;;4991823;28;20138;-72
2021/06/19 00:23:18;;;;;;;3.83;2.88;;;23.80;97.40;;;;;;4991656;28;20030;-74
2021/06/19 00:25:43;;;;;;;3.65;2.40;;;23.80;97.20;;;;;;4991586;28;20030;-71
2021/06/19 00:28:09;;;;;;;4.32;2.80;;;23.80;97.00;;;;;;4990639;28;20399;-72
2021/06/19 00:30:35;;;;;;;4.50;2.60;;;23.80;96.80;;;;;;4991076;28;20030;-73
2021/06/19 00:33:01;;;;;;;4.63;3.20;;;23.80;96.80;;;;;;4991134;28;20033;-72
2021/06/19 00:35:26;;;;;;;3.78;3.13;;;23.70;96.70;;;;;;4991015;28;20427;-72
2021/06/19 00:37:52;;;;;;;3.67;2.63;;;23.70;96.60;;;;;;4991658;28;20035;-71
2021/06/19 00:40:19;;;;;;;4.30;2.45;;;23.70;96.50;;;;;;4992081;28;20030;-71
2021/06/19 00:42:54;;;;;;;5.00;3.25;;;23.80;96.30;;;;;;4992073;28;20030;-71
2021/06/19 00:45:20;;;;;;;6.55;2.78;;;23.70;96.30;;;;;;4991463;28;20631;-72
2021/06/19 00:47:45;;;;;;;4.20;2.42;;;23.70;96.20;;;;;;4991680;28;20118;-71
2021/06/19 00:50:12;;;;;;;4.18;2.47;;;23.70;96.00;;;;;;4991739;28;20371;-72
2021/06/19 00:52:37;;;;;;;4.10;2.40;;;23.60;95.90;;;;;;4990984;28;20058;-73
2021/06/19 00:55:05;;;;;;;5.60;2.17;;;23.60;95.80;;;;;;4991844;28;20449;-72
2021/06/19 00:57:32;;;;;;;2.78;2.03;;;23.50;95.70;;;;;;4991234;28;20065;-73
2021/06/19 01:00:01;;;;;;;2.75;1.90;;;23.50;95.60;;;;;;4990623;28;20042;-72
2021/06/19 01:02:27;;;;;;;5.40;2.53;;;23.50;95.40;;;;;;4991456;28;20510;-73
2021/06/19 01:04:53;;;;;;;4.82;2.00;;;23.50;95.30;;;;;;4991434;28;20042;-73
2021/06/19 01:07:18;;;;;;;5.68;1.67;;;23.40;95.20;;;;;;4991687;28;20486;-72
2021/06/19 01:09:44;;;;;;;3.65;1.70;;;23.40;95.30;;;;;;4991800;28;20031;-72
2021/06/19 01:12:10;;;;;;;4.45;1.52;;;23.40;95.10;;;;;;4990281;28;20508;-72
2021/06/19 01:14:36;;;;;;;4.82;1.80;;;23.30;95.00;;;;;;4990560;28;20030;-73
2021/06/19 01:17:02;;;;;;;4.20;1.45;;;23.30;94.70;;;;;;4991352;28;20019;-72
2021/06/19 01:19:27;;;;;;;3.75;1.83;;;23.30;94.80;;;;;;4991185;28;20156;-73
2021/06/19 01:21:55;;;;;;;6.05;2.17;;;23.20;94.60;;;;;;4991538;28;20113;-73
2021/06/19 01:24:22;;;;;;;4.65;2.20;;;23.20;94.60;;;;;;4994549;28;20023;-75
2021/06/19 01:26:48;;;;;;;4.18;2.20;;;23.20;94.40;;;;;;4995268;28;20026;-74
2021/06/19 01:29:14;;;;;;;4.22;2.25;;;23.10;94.40;;;;;;4994419;28;20026;-75
2021/06/19 01:31:40;;;;;;;5.43;2.58;;;23.10;94.40;;;;;;4993763;28;20402;-76
2021/06/19 01:34:06;;;;;;;4.03;2.10;;;23.10;94.30;;;;;;4994441;28;20026;-77
2021/06/19 01:36:32;;;;;;;3.83;1.80;;;23.10;94.20;;;;;;4994380;28;20030;-72
2021/06/19 01:38:58;;;;;;;4.13;1.38;;;23.10;94.20;;;;;;4994578;28;20371;-72
2021/06/19 01:41:32;;;;;;;4.80;1.55;;;23.10;94.10;;;;;;4994550;28;20030;-72
2021/06/19 01:44:09;;;;;;;3.35;1.25;;;23.10;93.90;;;;;;4994061;28;20089;-72
2021/06/19 01:46:39;;;;;;;3.47;1.23;;;23.10;93.90;;;;;;4989366;28;20031;-71
2021/06/19 01:49:04;;;;;;;4.07;1.48;;;23.20;93.70;;;;;;4973904;28;20019;-72
2021/06/19 01:51:30;;;;;;;2.80;1.13;;;23.10;93.60;;;;;;4974830;28;20037;-72
2021/06/19 01:53:57;;;;;;;4.22;1.45;;;23.10;93.50;;;;;;4974999;28;20491;-72
2021/06/19 01:56:24;;;;;;;6.55;1.70;;;23.10;93.50;;;;;;4974662;28;20030;-71
2021/06/19 01:58:50;;;;;;;5.70;1.30;;;23.10;93.40;;;;;;4978470;28;20066;-72
2021/06/19 02:01:17;;;;;;;3.90;1.30;;;23.10;93.40;;;;;;4994441;28;20084;-72
2021/06/19 02:03:44;;;;;;;3.53;1.20;;;23.10;93.40;;;;;;4993604;28;20441;-71
2021/06/19 02:06:11;;;;;;;6.20;1.63;;;23.10;93.40;;;;;;4993805;28;20129;-72
2021/06/19 02:08:38;;;;;;;4.90;1.70;;;23.10;93.30;;;;;;4993521;28;20030;-72
2021/06/19 02:11:05;;;;;;;3.50;1.02;;;23.10;93.30;;;;;;4994024;28;20026;-72
2021/06/19 02:13:35;;;;;;;3.88;1.33;;;23.10;93.30;;;;;;4993888;28;20023;-72
2021/06/19 02:16:02;;;;;;;6.15;1.63;;;23.10;93.30;;;;;;4993873;28;20026;-72
2021/06/19 02:18:27;;;;;;;4.30;1.38;;;23.10;93.20;;;;;;4993797;28;20410;-72
2021/06/19 02:20:53;;;;;;;3.63;1.27;;;23.00;93.20;;;;;;4993814;28;20117;-72
2021/06/19 02:23:21;;;;;;;4.10;1.73;;;23.10;93.20;;;;;;4993749;28;20109;-72
2021/06/19 02:25:51;;;;;;;2.55;1.30;;;23.00;93.20;;;;;;4994140;28;20050;-72
2021/06/19 02:28:19;;;;;;;4.38;1.40;;;23.00;93.20;;;;;;4993795;28;20022;-71
2021/06/19 02:30:46;;;;;;;1.88;0.90;;;23.00;93.30;;;;;;4993349;28;20442;-74
2021/06/19 02:33:12;;;;;;;2.33;1.30;;;22.90;93.10;;;;;;4993275;28;20121;-73
2021/06/19 02:35:41;;;;;;;6.82;1.20;;;22.90;93.20;;;;;;4993515;28;20033;-72
2021/06/19 02:38:08;;;;;;;2.38;0.80;;;22.90;93.10;;;;;;4993612;28;20037;-72
2021/06/19 02:40:35;;;;;;;4.03;1.17;;;23.00;93.20;;;;;;4993343;28;20521;-72
2021/06/19 02:43:00;;;;;;;3.97;1.00;;;23.00;93.10;;;;;;4993556;28;20113;-72
2021/06/19 02:45:26;;;;;;;2.38;1.00;;;22.90;93.00;;;;;;4993336;28;20097;-72
2021/06/19 02:47:57;;;;;;;4.05;1.20;;;22.90;93.10;;;;;;4993388;28;20026;-73
2021/06/19 02:50:29;;;;;;;3.05;1.05;;;22.90;93.10;;;;;;4992795;28;20438;-72
2021/06/19 02:52:56;;;;;;;4.13;1.40;;;22.90;93.10;;;;;;4992013;28;20034;-72
2021/06/19 02:55:28;;;;;;;3.92;1.20;;;22.90;93.10;;;;;;4993119;28;20026;-76
2021/06/19 02:57:54;;;;;;;3.85;1.30;;;23.00;93.00;;;;;;4992981;28;20030;-72
2021/06/19 03:00:21;;;;;;;2.35;1.13;;;22.90;93.00;;;;;;4992143;28;20042;-74
2021/06/19 03:02:47;;;;;;;2.05;0.80;;;22.90;93.10;;;;;;4993213;28;20022;-72
2021/06/19 03:05:15;;;;;;;2.30;1.15;;;22.90;93.20;;;;;;4993087;28;20106;-72
2021/06/19 03:07:41;;;;;;;2.40;1.17;;;22.90;93.10;;;;;;4992462;28;20060;-72
2021/06/19 03:10:13;;;;;;;4.43;1.42;;;22.90;93.20;;;;;;4992983;28;20487;-72
2021/06/19 03:12:39;;;;;;;2.38;1.17;;;22.90;93.10;;;;;;4992539;28;20030;-71
2021/06/19 03:15:07;;;;;;;3.00;1.52;;;22.90;93.20;;;;;;4992978;28;20030;-73
2021/06/19 03:17:32;;;;;;;2.80;1.45;;;22.90;93.20;;;;;;4992527;28;20058;-72
2021/06/19 03:19:58;;;;;;;3.38;1.27;;;22.90;93.20;;;;;;4992794;28;20076;-73
2021/06/19 03:22:23;;;;;;;4.50;1.35;;;22.80;93.10;;;;;;4992523;28;20439;-72
2021/06/19 03:24:49;;;;;;;2.90;1.45;;;22.90;93.00;;;;;;4991785;28;20030;-71
2021/06/19 03:27:17;;;;;;;5.50;1.60;;;22.80;93.00;;;;;;4992991;28;20101;-72
2021/06/19 03:29:43;;;;;;;4.05;1.20;;;22.80;93.00;;;;;;4992023;28;20438;-71
2021/06/19 03:32:10;;;;;;;3.03;1.20;;;22.80;92.90;;;;;;4992593;28;20048;-72
2021/06/19 03:34:37;;;;;;;3.05;0.90;;;22.80;92.90;;;;;;4992274;28;20026;-71
2021/06/19 03:37:04;;;;;;;2.13;0.80;;;22.80;92.80;;;;;;4992064;28;20049;-71
2021/06/19 03:39:34;;;;;;;2.90;1.10;;;22.80;92.80;;;;;;4991747;28;20041;-71
2021/06/19 03:42:01;;;;;;;2.30;1.10;;;22.80;92.80;;;;;;4992513;28;20026;-72
2021/06/19 03:44:27;;;;;;;4.82;0.80;;;22.80;92.80;;;;;;4992160;28;20065;-72
2021/06/19 03:46:54;;;;;;;2.90;0.80;;;22.80;92.70;;;;;;4991803;28;20026;-71
2021/06/19 03:49:20;;;;;;;2.83;0.90;;;22.80;92.70;;;;;;4992585;28;20029;-72
2021/06/19 03:51:47;;;;;;;3.22;0.90;;;22.80;92.60;;;;;;4992288;28;20113;-71
2021/06/19 03:54:12;;;;;;;1.75;0.80;;;22.80;92.60;;;;;;4992396;28;20057;-71
2021/06/19 03:56:38;;;;;;;3.90;0.82;;;22.80;92.50;;;;;;4991950;28;20050;-70
2021/06/19 03:59:04;;;;;;;1.45;0.80;;;22.70;92.50;;;;;;4987087;28;20093;-70
2021/06/19 04:01:30;;;;;;;8.05;0.90;;;22.70;92.50;;;;;;4972419;28;20510;-70
2021/06/19 04:03:55;;;;;;;3.22;0.80;;;22.70;92.40;;;;;;4972679;28;20054;-71
2021/06/19 04:06:21;;;;;;;1.50;0.88;;;22.70;92.30;;;;;;4973434;28;20023;-72
2021/06/19 04:08:47;;;;;;;2.67;1.00;;;22.70;92.30;;;;;;4991352;28;20026;-74
2021/06/19 04:11:16;;;;;;;1.85;0.77;;;22.70;92.40;;;;;;4991456;28;20033;-73
2021/06/19 04:13:42;;;;;;;1.70;0.70;;;22.70;92.30;;;;;;4991757;28;20034;-75
2021/06/19 04:16:10;;;;;;;1.20;0.65;;;22.70;92.20;;;;;;4992002;28;20025;-76
2021/06/19 04:18:37;;;;;;;2.13;0.77;;;22.70;92.30;;;;;;4991672;28;20030;-72
2021/06/19 04:21:03;;;;;;;2.55;0.70;;;22.70;92.30;;;;;;4991936;28;20117;-75
2021/06/19 04:23:29;;;;;;;1.63;0.70;;;22.70;92.20;;;;;;4991631;28;20054;-73
2021/06/19 04:25:55;;;;;;;2.40;0.70;;;22.70;92.20;;;;;;4991796;28;20050;-76
2021/06/19 04:28:20;;;;;;;2.97;0.60;;;22.70;92.20;;;;;;4991791;28;20034;-72
2021/06/19 04:30:46;;;;;;;1.45;0.70;;;22.60;92.20;;;;;;4991911;28;20026;-75
2021/06/19 04:33:12;;;;;;;1.65;0.57;;;22.60;92.10;;;;;;4991434;28;20045;-70
2021/06/19 04:35:37;;;;;;;1.77;0.80;;;22.70;92.20;;;;;;4990925;28;20089;-72
2021/06/19 04:38:03;;;;;;;2.13;0.73;;;22.60;92.10;;;;;;4991099;28;20081;-71
2021/06/19 04:43:06;;;;;;;1.38;0.73;;;22.60;92.10;;;;;;4991808;28;20037;-72
2021/06/19 04:45:32;;;;;;;2.03;0.88;;;22.60;92.10;;;;;;4991318;28;20036;-71
2021/06/19 04:48:03;;;;;;;1.20;0.80;;;22.60;92.50;;;;;;4991512;28;20030;-72
2021/06/19 04:50:30;;;;;;;1.70;0.63;;;22.60;92.10;;;;;;4991295;28;20430;-71
2021/06/19 04:52:56;;;;;;;2.03;0.60;;;22.60;92.20;;;;;;4991449;28;20073;-70
2021/06/19 04:55:22;;;;;;;2.40;0.90;;;22.60;92.10;;;;;;4991134;28;20034;-70
2021/06/19 04:57:52;;;;;;;1.67;0.60;;;22.60;92.10;;;;;;4992762;28;20030;-71
2021/06/19 05:00:18;;;;;;;1.52;0.60;;;22.60;92.10;;;;;;4996902;28;20030;-72
2021/06/19 05:02:44;;;;;;;1.60;0.63;;;22.60;92.10;;;;;;4994667;28;20161;-71
2021/06/19 05:05:10;;;;;;;2.10;0.60;;;22.60;92.00;;;;;;4995282;28;20109;-71
2021/06/19 05:07:36;;;;;;;1.92;0.80;;;22.60;92.00;;;;;;4995027;28;20505;-71
2021/06/19 05:10:06;;;;;;;1.35;0.60;;;22.60;92.00;;;;;;4994741;28;20042;-72
2021/06/19 05:12:33;;;;;;;1.85;0.57;;;22.60;92.00;;;;;;4995015;28;20103;-71
2021/06/19 05:15:00;;;;;;;0.70;0.50;;;22.60;92.00;;;;;;4995131;28;20026;-70
2021/06/19 05:17:27;;;;;;;4.15;0.80;;;22.60;91.90;;;;;;4994857;28;20582;-71
2021/06/19 05:19:54;;;;;;;1.75;0.70;;;22.60;92.00;;;;;;4995095;28;20096;-71
2021/06/19 05:22:21;;;;;;;1.77;0.77;;;22.60;92.00;;;;;;4995344;28;20034;-72
2021/06/19 05:24:47;;;;;;;2.22;0.70;;;22.60;92.00;;;;;;4994795;28;20062;-71
2021/06/19 05:27:12;;;;;;;1.83;0.60;;;22.60;92.00;;;;;;4994461;28;20058;-72
2021/06/19 05:29:38;;;;;;;1.85;0.68;;;22.60;91.90;;;;;;4993916;28;20026;-72
2021/06/19 05:32:04;;;;;;;1.00;0.50;;;22.60;92.00;;;;;;4993299;28;20140;-72
2021/06/19 05:34:29;;;;;;;1.70;0.73;;;22.60;91.90;;;;;;4994626;28;20054;-71
2021/06/19 05:36:55;;;;;;;4.63;0.85;;;22.60;91.90;;;;;;4994768;28;20391;-72
2021/06/19 05:39:21;;;;;;;3.03;1.60;;;22.60;92.00;;;;;;4994903;28;20117;-71
2021/06/19 05:41:46;;;;;;;2.60;0.82;;;22.60;92.00;;;;;;4994498;28;20106;-71
2021/06/19 05:44:12;;;;;;;1.92;1.00;;;22.60;92.00;;;;;;4994580;28;20490;-71
2021/06/19 05:46:38;;;;;;;3.17;0.90;;;22.60;92.00;;;;;;4994386;28;20089;-72
2021/06/19 05:49:05;;;;;;;1.42;1.00;;;22.60;92.00;;;;;;4994568;28;20030;-71
2021/06/19 05:51:31;;;;;;;2.90;1.10;;;22.60;92.00;;;;;;4994028;28;20407;-71
2021/06/19 05:53:56;;;;;;;3.22;1.10;;;22.60;92.00;;;;;;4994489;28;20549;-72
2021/06/19 05:56:22;;;;;;;2.78;1.10;;;22.60;92.00;;;;;;4994286;28;20113;-74
2021/06/19 05:58:48;;;;;;;1.75;0.90;;;22.50;92.00;;;;;;4993524;28;20050;-70
2021/06/19 06:01:13;;;;;;;2.75;1.27;;;22.50;92.00;;;;;;4993429;28;20045;-74
2021/06/19 06:03:39;;;;;;;2.05;1.02;;;22.50;92.00;;;;;;4994144;28;20503;-70
2021/06/19 06:06:05;;;;;;;2.08;0.75;;;22.50;92.00;;;;;;4993955;28;20026;-71
2021/06/19 06:08:30;;;;;;;2.50;0.73;;;22.50;92.00;;;;;;4992794;28;20105;-70
2021/06/19 06:10:56;;;;;;;1.58;0.60;;;22.50;92.00;;;;;;4994037;28;20109;-72
2021/06/19 06:13:21;;;;;;;1.70;0.70;;;22.50;92.00;;;;;;4994329;28;20026;-71
2021/06/19 06:15:48;;;;;;;3.10;1.02;;;22.50;92.00;;;;;;4992881;28;20061;-72
2021/06/19 06:18:13;;;;;;;2.53;0.70;;;22.50;92.00;;;;;;4989136;28;20465;-71
2021/06/19 06:20:39;;;;;;;2.45;0.60;;;22.50;92.00;;;;;;4974375;28;20106;-71
2021/06/19 06:23:05;;;;;;;2.22;0.50;;;22.50;92.00;;;;;;4974468;28;20030;-71
2021/06/19 06:25:30;;;;;;;1.05;0.50;;;22.50;92.00;;;;;;4974181;28;20070;-72
2021/06/19 06:27:56;;;;;;;2.83;0.73;;;22.50;92.00;;;;;;4978820;28;20018;-71
2021/06/19 06:30:22;;;;;;;1.63;0.60;;;22.50;92.00;;;;;;4994046;28;20038;-71
2021/06/19 06:32:48;;;;;;;1.27;0.55;;;22.50;91.90;;;;;;4993479;28;20018;-71
2021/06/19 06:35:14;;;;;;;1.42;0.63;;;22.50;91.90;;;;;;4993741;28;20045;-71
2021/06/19 06:37:40;;;;;;;2.28;0.70;;;22.50;92.20;;;;;;4991282;28;20057;-72
2021/06/19 06:40:09;;;;;;;2.10;0.90;;;22.60;91.80;;;;;;4992364;28;20073;-72
2021/06/19 06:42:34;;;;;;;1.83;0.90;;;22.60;91.80;;;;;;4992156;28;20075;-73
2021/06/19 06:45:00;;;;;;;1.48;0.70;;;22.60;91.80;;;;;;4993178;28;20037;-72
2021/06/19 06:47:26;;;;;;;1.48;0.60;;;22.60;91.60;;;;;;4992015;28;20022;-73
2021/06/19 06:49:52;;;;;;;4.10;0.60;;;22.70;91.70;;;;;;4993613;28;20474;-72
2021/06/19 06:52:18;;;;;;;1.13;0.80;;;22.70;91.60;;;;;;4993492;28;20506;-72
2021/06/19 06:54:43;;;;;;;1.95;0.70;;;22.70;91.60;;;;;;4991734;28;20711;-72
2021/06/19 06:57:09;;;;;;;2.63;0.60;;;22.70;91.50;;;;;;4993164;28;20495;-72
2021/06/19 06:59:36;;;;;;;2.03;0.90;;;22.70;91.50;;;;;;4991819;28;20045;-74
2021/06/19 07:02:03;;;;;;;3.30;1.05;;;22.70;91.40;;;;;;4992396;28;20031;-71
2021/06/19 07:04:28;;;;;;;4.38;0.80;;;22.60;91.60;;;;;;4992868;28;20053;-71
2021/06/19 07:06:54;;;;;;;1.42;0.65;;;22.60;91.80;;;;;;4993122;28;20030;-75
2021/06/19 07:09:20;;;;;;;2.13;0.50;;;22.60;91.80;;;;;;4993420;28;20478;-73
2021/06/19 07:11:45;;;;;;;2.25;0.47;;;22.50;91.60;;;;;;4992288;28;20157;-74
2021/06/19 07:14:11;;;;;;;1.45;0.60;;;22.50;91.80;;;;;;4993086;28;20506;-73
2021/06/19 07:16:37;;;;;;;2.10;0.50;;;22.30;92.10;;;;;;4992275;28;20023;-74
2021/06/19 07:19:02;;;;;;;1.23;0.50;;;22.30;91.90;;;;;;4992047;28;20132;-73
2021/06/19 07:21:29;;;;;;;3.13;0.80;;;22.30;91.80;;;;;;4990805;28;20077;-73
2021/06/19 07:23:55;;;;;;;3.88;1.95;;;22.30;92.00;;;;;;4990940;28;20026;-74
2021/06/19 07:26:21;;;;;;;3.10;1.05;;;22.20;92.30;;;;;;4991367;28;20022;-72
2021/06/19 07:28:47;;;;;;;1.48;0.93;;;22.20;92.40;;;;;;4990840;28;20030;-72
2021/06/19 07:31:13;;;;;;;5.70;1.25;;;22.20;92.50;;;;;;4992171;28;20046;-72
2021/06/19 07:33:39;;;;;;;2.08;0.77;;;22.10;92.80;;;;;;4992570;28;20022;-79
2021/06/19 07:36:05;;;;;;;1.85;0.75;;;22.20;92.80;;;;;;4990510;28;20029;-78
2021/06/19 07:38:32;;;;;;;3.03;0.80;;;22.30;92.60;;;;;;4990230;28;20050;-77
2021/06/19 07:40:58;;;;;;;1.75;0.60;;;22.40;92.40;;;;;;4990537;28;20097;-77
2021/06/19 07:43:24;;;;;;;1.90;0.60;;;22.50;92.20;;;;;;4990310;28;20520;-72
2021/06/19 07:45:50;;;;;;;3.92;0.60;;;22.60;92.10;;;;;;4990922;28;20026;-76
2021/06/19 07:48:16;;;;;;;1.73;0.60;;;22.60;92.00;;;;;;4991947;28;20077;-76
2021/06/19 07:50:42;;;;;;;4.00;0.90;;;22.60;92.00;;;;;;4991615;28;20030;-79
2021/06/19 07:53:08;;;;;;;1.80;0.60;;;22.70;91.90;;;;;;4992118;28;20066;-77
2021/06/19 07:55:34;;;;;;;2.15;0.55;;;22.70;91.80;;;;;;4992023;28;20040;-75
2021/06/19 07:58:00;;;;;;;9.27;0.50;;;22.80;91.90;;;;;;4992263;28;20034;-79
2021/06/19 08:00:25;;;;;;;4.47;0.70;;;22.80;91.80;;;;;;4992100;28;20042;-76
2021/06/19 08:02:51;;;;;;;4.63;0.52;;;22.90;92.10;;;;;;4992817;28;20034;-75
2021/06/19 08:05:17;;;;;;;4.50;0.65;;;22.90;92.20;;;;;;4990504;28;20032;-72
2021/06/19 08:07:43;;;;;;;5.13;0.50;;;22.90;92.00;;;;;;4991190;28;20081;-79
2021/06/19 08:10:10;;;;;;;3.97;0.60;;;22.90;92.20;;;;;;4992192;28;20105;-85
2021/06/19 08:12:37;;;;;;;5.28;0.70;;;22.90;92.10;;;;;;5005224;28;20109;-76
2021/06/19 08:15:05;;;;;;;4.72;0.65;;;22.90;92.20;;;;;;4990039;28;20085;-73
2021/06/19 08:17:30;;;;;;;7.13;0.70;;;22.90;92.30;;;;;;4990079;28;20459;-78
2021/06/19 08:19:56;;;;;;;6.32;0.70;;;23.00;92.40;;;;;;4990373;28;20105;-81
2021/06/19 08:22:21;;;;;;;4.22;0.80;;;23.00;92.50;;;;;;4990394;28;20018;-70
2021/06/19 08:24:47;;;;;;;3.70;0.60;;;23.10;92.70;;;;;;4990580;28;20031;-69
2021/06/19 08:27:14;;;;;;;3.50;1.17;;;23.10;92.60;;;;;;4991929;28;20560;-71
2021/06/19 08:29:40;;;;;;;6.93;0.80;;;23.10;92.50;;;;;;4991417;28;20054;-79
2021/06/19 08:32:11;;;;;;;7.40;1.33;;;23.10;92.50;;;;;;4991980;28;20069;-81
2021/06/19 08:34:37;;;;;;;3.85;0.70;;;23.20;92.50;;;;;;4991635;28;20110;-81
2021/06/19 08:37:03;;;;;;;5.35;0.73;;;23.20;92.30;;;;;;4992052;28;20538;-76
2021/06/19 08:39:29;;;;;;;1.83;0.90;;;23.20;92.50;;;;;;4991578;28;20387;-82
2021/06/19 08:41:56;;;;;;;3.38;0.65;;;23.20;92.50;;;;;;4991191;28;20034;-80
2021/06/19 08:44:26;;;;;;;3.70;1.08;;;23.30;92.60;;;;;;4991660;28;20027;-83
2021/06/19 08:46:55;;;;;;;2.10;0.63;;;23.30;92.50;;;;;;4992122;28;20363;-74
2021/06/19 08:49:22;;;;;;;4.20;0.73;;;23.30;92.60;;;;;;4992009;28;20022;-77
2021/06/19 08:51:47;;;;;;;5.15;0.60;;;23.30;92.70;;;;;;4990849;28;20027;-77
2021/06/19 08:54:14;;;;;;;4.30;0.80;;;23.30;92.70;;;;;;4991616;28;20555;-79
2021/06/19 08:56:41;;;;;;;3.97;0.70;;;23.30;92.60;;;;;;4991439;28;20031;-75
2021/06/19 08:59:06;;;;;;;2.80;0.80;;;23.30;92.60;;;;;;4991418;28;20030;-78
2021/06/19 09:01:32;;;;;;;2.33;0.80;;;23.30;92.50;;;;;;4991150;28;20035;-76
2021/06/19 09:04:03;;;;;;;3.13;0.73;;;23.30;92.60;;;;;;5006492;28;20023;-74
2021/06/19 09:06:28;;;;;;;3.33;0.70;;;23.20;92.40;;;;;;4990772;28;20045;-78
2021/06/19 09:09:16;;;;;;;1.10;0.40;;;23.20;92.40;;;;;;4991528;28;20015;-76
2021/06/19 09:11:46;;;;;;;2.03;0.68;;;23.20;92.30;;;;;;4992285;28;20126;-74
2021/06/19 09:14:14;;;;;;;2.38;0.60;;;23.20;92.20;;;;;;4973828;28;20126;-79
2021/06/19 09:16:42;;;;;;;2.92;0.70;;;23.20;92.10;;;;;;4989682;28;20030;-75
2021/06/19 09:19:25;;;;;;;2.08;0.63;;;23.20;92.10;;;;;;4991006;28;20038;-78
2021/06/19 09:22:11;;;;;;;2.47;0.60;;;23.20;92.10;;;;;;4991449;28;20031;-75
2021/06/19 09:24:58;;;;;;;4.57;1.30;;;23.20;92.00;;;;;;4991587;28;20443;-79
2021/06/19 09:27:38;;;;;;;4.20;0.80;;;23.20;92.10;;;;;;4991089;28;20041;-73
2021/06/19 09:30:21;;;;;;;3.17;0.80;;;23.20;92.00;;;;;;4986830;28;20049;-78
2021/06/19 09:32:58;;;;;;;4.53;0.77;;;23.30;92.10;;;;;;4971649;28;20031;-76
2021/06/19 09:35:32;;;;;;;1.20;0.57;;;23.30;92.00;;;;;;4972025;28;20031;-73
2021/06/19 09:37:59;;;;;;;3.05;0.90;;;23.30;92.00;;;;;;4971891;28;20030;-78
2021/06/19 09:40:26;;;;;;;1.75;0.70;;;23.30;91.90;;;;;;4972237;28;20038;-73
2021/06/19 09:42:55;;;;;;;3.80;1.10;;;23.30;92.00;;;;;;4990962;28;20110;-76
2021/06/19 09:45:23;;;;;;;1.83;0.90;;;23.30;92.10;;;;;;4993866;28;20034;-77
2021/06/19 09:47:50;;;;;;;1.95;0.68;;;23.30;92.30;;;;;;4988381;28;20030;-76
2021/06/19 09:50:20;;;;;;;5.90;0.63;;;23.30;92.10;;;;;;4994469;28;20173;-78
2021/06/19 09:52:46;;;;;;;4.32;0.80;;;23.30;92.10;;;;;;4994311;28;20064;-78
2021/06/19 09:55:14;;;;;;;8.60;6.80;;;23.40;92.10;;;;;;4994506;28;20078;-74
2021/06/19 09:57:42;;;;;;;10.38;7.57;;;23.40;92.20;;;;;;4994092;28;20023;-77
2021/06/19 10:00:10;;;;;;;9.18;5.18;;;23.40;92.40;;;;;;4994115;28;20038;-77
2021/06/19 10:02:36;;;;;;;11.23;4.28;;;23.40;92.50;;;;;;4992863;28;20030;-74
2021/06/19 10:05:02;;;;;;;7.22;4.50;;;23.50;92.70;;;;;;4994733;28;20113;-79
2021/06/19 10:07:29;;;;;;;11.15;3.72;;;23.40;92.60;;;;;;4994445;28;20018;-77
2021/06/19 10:09:56;;;;;;;8.63;3.45;;;23.40;92.20;;;;;;4994246;28;20023;-76
2021/06/19 10:12:27;;;;;;;4.25;2.80;;;23.50;92.30;;;;;;4994087;28;20414;-77
2021/06/19 10:14:58;;;;;;;4.55;2.55;;;23.50;92.40;;;;;;4994392;28;20026;-76
2021/06/19 10:17:33;;;;;;;4.00;2.42;;;23.50;92.50;;;;;;4993981;28;20077;-73
2021/06/19 10:20:01;;;;;;;5.57;2.47;;;23.50;92.40;;;;;;4994089;28;20031;-74
2021/06/19 10:22:31;;;;;;;3.28;2.15;;;23.50;92.40;;;;;;4993819;28;20018;-77
2021/06/19 10:25:01;;;;;;;5.25;2.00;;;23.50;92.40;;;;;;4993963;28;20026;-73
2021/06/19 10:27:30;;;;;;;4.80;1.65;;;23.50;92.50;;;;;;4993649;28;20019;-74
2021/06/19 10:30:00;;;;;;;3.80;1.70;;;23.50;92.50;;;;;;5008313;28;20113;-73
2021/06/19 10:32:46;;;;;;;2.13;1.25;;;23.50;92.40;;;;;;4993787;28;20026;-74
2021/06/19 10:35:20;;;;;;;2.47;1.17;;;23.50;92.50;;;;;;4993858;28;20046;-74
2021/06/19 10:37:48;;;;;;;3.15;1.27;;;23.50;92.50;;;;;;4993427;28;20046;-74
2021/06/19 10:40:28;;;;;;;3.65;1.42;;;23.50;92.40;;;;;;4993280;28;20544;-74
2021/06/19 10:43:16;;;;;;;2.45;1.27;;;23.50;92.40;;;;;;4993724;28;20045;-74
2021/06/19 10:45:45;;;;;;;3.20;1.08;;;23.50;92.30;;;;;;4993636;28;20352;-74
2021/06/19 10:48:12;;;;;;;4.38;1.45;;;23.50;92.30;;;;;;4993570;28;20026;-73
2021/06/19 10:50:41;;;;;;;3.90;1.70;;;23.50;92.50;;;;;;4993837;28;20019;-78
2021/06/19 10:53:14;;;;;;;4.78;1.55;;;23.50;92.50;;;;;;4993152;28;20455;-74
2021/06/19 10:55:43;;;;;;;8.52;1.85;;;23.50;92.50;;;;;;5007644;28;20073;-78
2021/06/19 10:58:28;;;;;;;4.43;1.60;;;23.50;92.20;;;;;;4992847;28;20117;-83
2021/06/19 11:01:04;;;;;;;6.15;2.08;;;23.50;92.20;;;;;;4988951;28;20498;-75
2021/06/19 11:03:39;;;;;;;13.10;2.25;;;23.40;92.00;;;;;;4991043;28;20046;-74
2021/06/19 11:06:27;;;;;;;7.15;2.10;;;23.40;92.20;;;;;;4988799;28;20037;-76
2021/06/19 11:09:18;;;;;;;5.78;2.08;;;23.30;92.20;;;;;;4990096;28;20049;-77
2021/06/19 11:11:46;;;;;;;3.53;1.58;;;23.30;92.20;;;;;;4990604;28;20038;-78
2021/06/19 11:14:12;;;;;;;3.72;1.55;;;23.30;92.30;;;;;;4991303;28;20022;-76
2021/06/19 11:16:37;;;;;;;2.72;1.80;;;23.40;92.30;;;;;;4991034;28;20032;-75
2021/06/19 11:19:03;;;;;;;3.22;1.77;;;23.40;92.20;;;;;;4990982;28;20045;-81
2021/06/19 11:21:32;;;;;;;3.50;2.13;;;23.30;92.00;;;;;;5006731;28;20117;-77
2021/06/19 11:24:00;;;;;;;2.03;1.70;;;23.30;92.00;;;;;;4991887;28;20045;-77
2021/06/19 11:26:59;;;;;;;4.63;1.75;;;23.30;92.10;;;;;;4989770;28;20026;-75
2021/06/19 11:29:41;;;;;;;2.90;2.00;;;23.30;92.00;;;;;;4991321;28;20467;-75
2021/06/19 11:32:42;;;;;;;6.47;1.90;;;23.30;91.90;;;;;;4992929;28;20030;-76
2021/06/19 11:35:22;;;;;;;5.00;1.92;;;23.30;92.00;;;;;;4952071;29;20049;-75
2021/06/19 11:37:51;;;;;;;2.50;1.67;;;23.30;92.00;;;;;;4987779;28;20384;-76
2021/06/19 11:40:28;;;;;;;2.78;1.38;;;23.30;92.00;;;;;;4991391;28;20034;-74
2021/06/19 11:42:53;;;;;;;2.85;1.58;;;23.40;92.00;;;;;;4991763;28;20031;-75
2021/06/19 11:45:19;;;;;;;5.68;1.65;;;23.50;92.00;;;;;;4992372;28;20502;-73
2021/06/19 11:47:47;;;;;;;4.57;1.63;;;23.50;92.20;;;;;;4992141;28;20034;-76
2021/06/19 11:50:13;;;;;;;3.60;1.55;;;23.50;92.40;;;;;;4994027;28;20379;-76
2021/06/19 11:52:39;;;;;;;8.65;2.50;;;23.60;92.50;;;;;;4992408;28;20026;-75
2021/06/19 11:55:05;;;;;;;4.03;1.95;;;23.60;92.60;;;;;;4987998;28;20185;-74
2021/06/19 11:57:31;;;;;;;3.55;1.90;;;23.60;93.60;;;;;;4990284;28;20109;-75
2021/06/19 12:00:11;;;;;;;3.10;1.88;;;23.60;93.70;;;;;;4991351;28;20116;-75
2021/06/19 12:02:37;;;;;;;3.78;2.10;;;23.60;94.00;;;;;;5006882;28;20029;-74
2021/06/19 12:05:10;;;;;;;4.63;2.33;;;23.70;94.30;;;;;;4992204;28;20483;-74
2021/06/19 12:07:37;;;;;;;3.78;2.00;;;23.70;94.50;;;;;;4990685;28;20487;-74
2021/06/19 12:10:23;;;;;;;4.10;2.45;;;23.70;94.80;;;;;;4991749;28;20033;-74
2021/06/19 12:13:03;;;;;;;3.13;2.05;;;23.70;94.80;;;;;;4972945;28;20030;-74
2021/06/19 12:15:30;;;;;;;5.53;2.28;;;23.70;95.00;;;;;;4972296;28;20154;-74
2021/06/19 12:17:58;;;;;;;7.07;2.60;;;23.70;95.00;;;;;;4983780;28;20035;-74
2021/06/19 12:20:24;;;;;;;6.38;2.13;;;23.70;95.20;;;;;;4991876;28;20037;-75
2021/06/19 12:22:51;;;;;;;2.70;2.30;;;23.70;95.20;;;;;;4991960;28;20025;-74
2021/06/19 12:25:32;;;;;;;3.38;2.33;;;23.80;95.20;;;;;;4986612;28;20081;-74
2021/06/19 12:27:59;;;;;;;4.07;2.75;;;23.80;95.10;;;;;;4991039;28;20379;-74
2021/06/19 12:30:25;;;;;;;3.95;2.53;;;23.90;95.10;;;;;;4991413;28;20026;-74
2021/06/19 12:32:50;;;;;;;3.70;2.50;;;23.90;95.00;;;;;;4992037;28;20027;-75
2021/06/19 12:35:19;;;;;;;4.80;2.33;;;23.90;95.00;;;;;;4990953;28;20018;-75
2021/06/19 12:37:56;;;;;;;3.58;2.40;;;23.90;95.10;;;;;;4991658;28;20036;-75
2021/06/19 12:40:29;;;;;;;3.53;2.42;;;24.00;95.00;;;;;;4991190;28;20100;-74
2021/06/19 12:42:57;;;;;;;4.13;2.78;;;24.00;94.90;;;;;;4991685;28;20506;-74
2021/06/19 12:45:25;;;;;;;4.13;2.92;;;24.00;94.70;;;;;;4991859;28;20390;-75
2021/06/19 12:47:52;;;;;;;3.38;3.08;;;24.00;94.60;;;;;;4990939;28;20029;-75
2021/06/19 12:50:30;;;;;;;6.78;3.03;;;24.00;94.80;;;;;;4970892;28;20027;-75
2021/06/19 12:53:12;;;;;;;6.28;2.90;;;24.00;94.80;;;;;;4981494;28;20117;-74